Time;durP1;ratioP1;P1;durP2;ratioP2;P2;SDS_P1;SDS_P2;PMS_P1;PMS_P2;Temp;Humidity;BMP_temperature;BMP_pressure;BME280_temperature;BME280_humidity;BME280_pressure;Samples;Min_cycle;Max_cycle;Signal;HPM_P1;HPM_P2
2022/02/05 00:00:49;;;;;;;1999.90;999.90;;;;;;;2.06;100.00;100071.38;5026433;28;20041;-84
2022/02/05 00:03:23;;;;;;;1999.90;999.90;;;;;;;2.03;100.00;100069.13;5028927;28;20057;-83
2022/02/05 00:05:56;;;;;;;1999.90;999.90;;;;;;;1.98;100.00;100075.22;5034619;28;20061;-83
2022/02/05 00:08:38;;;;;;;1999.90;999.90;;;;;;;1.91;100.00;100063.00;5032448;28;20068;-84
2022/02/05 00:11:50;;;;;;;1999.90;999.90;;;;;;;2.03;100.00;100071.81;5029016;28;20046;-83
2022/02/05 00:14:37;;;;;;;1999.90;999.90;;;;;;;2.00;100.00;100075.81;5046612;28;20300;-83
2022/02/05 00:33:02;;;;;;;1999.90;999.90;;;;;;;1.99;100.00;100076.03;5021626;28;20064;-84
2022/02/05 00:40:18;;;;;;;1999.90;999.90;;;;;;;2.09;100.00;100104.97;5031463;28;20056;-83
2022/02/05 00:42:46;;;;;;;1999.90;999.90;;;;;;;2.16;100.00;100116.38;5035067;28;20057;-83
2022/02/05 00:45:19;;;;;;;1999.90;999.90;;;;;;;2.08;100.00;100109.50;5031201;28;20053;-84
2022/02/05 00:47:55;;;;;;;1999.90;999.90;;;;;;;2.11;100.00;100113.59;5032384;28;20049;-83
2022/02/05 00:50:26;;;;;;;1999.90;999.90;;;;;;;2.08;100.00;100125.59;5033831;28;20397;-83
2022/02/05 00:53:03;;;;;;;1999.90;999.90;;;;;;;2.03;100.00;100112.91;5027647;28;20046;-84
2022/02/05 00:55:35;;;;;;;1999.90;999.90;;;;;;;2.12;100.00;100134.00;5030585;28;20072;-83
2022/02/05 00:58:09;;;;;;;1999.90;999.90;;;;;;;2.04;100.00;100119.09;5031781;28;20104;-83
2022/02/05 01:00:38;;;;;;;1999.90;999.90;;;;;;;1.98;100.00;100123.53;5024347;28;20041;-83
2022/02/05 01:03:11;;;;;;;1999.90;999.90;;;;;;;1.99;100.00;100133.22;5033336;28;20072;-83
2022/02/05 01:05:45;;;;;;;1999.90;999.90;;;;;;;1.90;100.00;100144.56;5025557;28;20056;-84
2022/02/05 01:08:13;;;;;;;1999.90;999.90;;;;;;;1.78;100.00;100129.31;5030985;28;20045;-83
2022/02/05 01:10:48;;;;;;;1999.90;999.90;;;;;;;1.85;100.00;100140.72;5023761;28;20053;-83
2022/02/05 01:13:22;;;;;;;1999.90;999.90;;;;;;;1.78;100.00;100131.16;5031605;28;20057;-83
2022/02/05 01:16:03;;;;;;;1999.90;999.90;;;;;;;1.85;100.00;100162.19;5029970;28;20037;-83
2022/02/05 01:18:34;;;;;;;1999.90;999.90;;;;;;;1.87;100.00;100165.44;5021764;28;20058;-84
2022/02/05 01:21:10;;;;;;;1999.90;999.90;;;;;;;1.91;100.00;100156.94;5037464;28;20049;-83
2022/02/05 01:23:44;;;;;;;1999.90;999.90;;;;;;;1.96;100.00;100162.38;5018930;28;20049;-83
2022/02/05 01:26:20;;;;;;;1999.90;999.90;;;;;;;1.94;100.00;100154.56;5040288;28;20402;-83
2022/02/05 01:28:59;;;;;;;1999.90;999.90;;;;;;;1.95;100.00;100156.22;5028151;28;20054;-83
2022/02/05 01:31:32;;;;;;;1999.90;999.90;;;;;;;1.93;100.00;100158.31;5028543;28;20034;-83
2022/02/05 01:34:11;;;;;;;1999.90;999.90;;;;;;;2.01;100.00;100173.25;5032306;28;20050;-83
2022/02/05 01:50:54;;;;;;;1999.90;999.90;;;;;;;1.97;100.00;100185.50;5047235;28;20052;-84
2022/02/05 01:53:35;;;;;;;1999.90;999.90;;;;;;;1.92;100.00;100191.59;5031263;28;20053;-83
2022/02/05 01:56:27;;;;;;;1999.90;999.90;;;;;;;1.93;100.00;100195.06;5027799;28;20421;-84
2022/02/05 01:59:14;;;;;;;1999.90;999.90;;;;;;;1.85;100.00;100186.31;5037744;28;20048;-82
2022/02/05 02:04:50;;;;;;;1999.90;999.90;;;;;;;1.87;100.00;100197.63;5044534;28;20049;-83
2022/02/05 02:13:26;;;;;;;1999.90;999.90;;;;;;;1.68;100.00;100198.81;5019103;28;20069;-83
2022/02/05 02:16:11;;;;;;;1999.90;999.90;;;;;;;1.67;100.00;100205.22;5042053;28;20049;-83
2022/02/05 02:18:56;;;;;;;1999.90;999.90;;;;;;;1.64;100.00;100214.56;5027718;28;20071;-83
2022/02/05 02:21:34;;;;;;;1999.90;999.90;;;;;;;1.62;100.00;100210.47;5036289;28;20409;-84
2022/02/05 02:24:09;;;;;;;1999.90;999.90;;;;;;;1.66;100.00;100220.50;5025864;28;20046;-84
2022/02/05 02:26:53;;;;;;;1999.90;999.90;;;;;;;1.51;100.00;100201.34;5030536;28;20048;-83
2022/02/05 02:29:36;;;;;;;1999.90;999.90;;;;;;;1.56;100.00;100222.94;5026232;28;20058;-84
2022/02/05 02:32:05;;;;;;;1999.90;999.90;;;;;;;1.47;100.00;100213.59;5062239;28;20041;-84
2022/02/05 02:34:44;;;;;;;1999.90;999.90;;;;;;;1.49;100.00;100219.53;5038427;28;20053;-84
2022/02/05 02:37:19;;;;;;;1999.90;999.90;;;;;;;1.50;100.00;100221.97;5031015;28;20445;-84
2022/02/05 02:40:04;;;;;;;1999.90;999.90;;;;;;;1.54;100.00;100227.72;5028452;28;20080;-83
2022/02/05 02:42:35;;;;;;;1999.90;999.90;;;;;;;1.57;100.00;100229.91;5027966;28;20052;-84
2022/02/05 02:45:09;;;;;;;1999.90;999.90;;;;;;;1.61;100.00;100224.91;5033179;28;20057;-84
2022/02/05 02:47:44;;;;;;;1999.90;999.90;;;;;;;1.67;100.00;100240.06;5018629;28;20053;-84
2022/02/05 02:50:31;;;;;;;1999.90;999.90;;;;;;;1.69;100.00;100238.00;5029542;28;20045;-83
2022/02/05 02:58:52;;;;;;;1999.90;999.90;;;;;;;1.84;100.00;100227.63;5029541;28;20060;-83
2022/02/05 03:01:21;;;;;;;1999.90;999.90;;;;;;;1.86;100.00;100227.38;5027988;28;20049;-83
2022/02/05 03:03:54;;;;;;;1999.90;999.90;;;;;;;1.81;100.00;100222.72;5032338;28;20502;-83
2022/02/05 03:06:22;;;;;;;1999.90;999.90;;;;;;;1.75;100.00;100204.06;5026426;28;20406;-83
2022/02/05 03:08:57;;;;;;;1999.90;999.90;;;;;;;1.62;100.00;100207.78;5027433;28;20056;-83
2022/02/05 03:11:31;;;;;;;1999.90;999.90;;;;;;;1.83;100.00;100219.81;5025817;28;20050;-83
2022/02/05 03:14:04;;;;;;;1999.90;999.90;;;;;;;1.87;100.00;100229.81;5029597;28;20375;-83
2022/02/05 03:16:37;;;;;;;1999.90;999.90;;;;;;;1.89;100.00;100236.84;5021163;28;20058;-83
2022/02/05 03:19:11;;;;;;;1999.90;999.90;;;;;;;1.89;100.00;100239.53;5028518;28;20048;-85
2022/02/05 03:21:45;;;;;;;1999.90;999.90;;;;;;;1.89;100.00;100251.06;5027499;28;20061;-82
2022/02/05 03:24:20;;;;;;;1999.90;999.90;;;;;;;1.90;100.00;100243.84;5027874;28;20053;-86
2022/02/05 03:26:48;;;;;;;1999.90;999.90;;;;;;;1.96;100.00;100242.91;5022177;28;20255;-82
2022/02/05 03:29:21;;;;;;;1999.90;999.90;;;;;;;1.97;100.00;100268.69;5061771;28;20075;-83
2022/02/05 03:31:49;;;;;;;1999.90;999.90;;;;;;;1.90;100.00;100257.25;5033532;28;20045;-84
2022/02/05 03:34:23;;;;;;;1999.90;999.90;;;;;;;1.73;100.00;100278.56;5025213;28;20076;-83
2022/02/05 03:36:51;;;;;;;1999.90;999.90;;;;;;;1.64;100.00;100286.97;5026134;28;20057;-83
2022/02/05 03:39:21;;;;;;;1999.90;999.90;;;;;;;1.62;100.00;100299.00;5035652;28;20053;-83
2022/02/05 03:41:49;;;;;;;1999.90;999.90;;;;;;;1.50;100.00;100307.00;5037156;28;20056;-83
2022/02/05 03:44:17;;;;;;;1999.90;999.90;;;;;;;1.46;100.00;100327.25;5032365;28;20268;-83
2022/02/05 03:46:47;;;;;;;1999.90;999.90;;;;;;;1.49;100.00;100334.84;5033807;28;20045;-83
2022/02/05 03:49:17;;;;;;;1999.90;999.90;;;;;;;1.34;100.00;100337.94;5030487;28;20052;-84
2022/02/05 03:51:46;;;;;;;1999.90;999.90;;;;;;;1.24;100.00;100353.75;5034308;28;20040;-83
2022/02/05 03:54:23;;;;;;;1999.90;999.90;;;;;;;1.07;100.00;100369.63;5033659;28;20493;-84
2022/02/05 03:56:52;;;;;;;1999.90;999.90;;;;;;;0.65;100.00;100372.97;5031313;28;20810;-84
2022/02/05 03:59:20;;;;;;;1999.90;999.90;;;;;;;0.43;100.00;100372.53;5032454;28;20486;-84
2022/02/05 04:01:54;;;;;;;1999.90;999.90;;;;;;;0.43;100.00;100370.72;5030903;28;20497;-83
2022/02/05 04:04:28;;;;;;;1999.90;999.90;;;;;;;0.30;100.00;100378.84;5047186;28;20159;-83
2022/02/05 04:07:03;;;;;;;1999.90;999.90;;;;;;;0.24;100.00;100377.88;5032867;28;20060;-83
2022/02/05 04:09:38;;;;;;;1999.90;999.90;;;;;;;0.23;100.00;100365.53;5027374;28;20050;-83
2022/02/05 04:18:08;;;;;;;1999.90;999.90;;;;;;;0.30;100.00;100346.72;4973176;28;20069;-83
2022/02/05 04:20:41;;;;;;;1999.90;999.90;;;;;;;0.16;100.00;100346.03;4989855;28;20050;-83
2022/02/05 04:23:14;;;;;;;1999.90;999.90;;;;;;;0.19;100.00;100337.56;5002600;28;20080;-83
2022/02/05 04:25:49;;;;;;;1999.90;999.90;;;;;;;0.00;100.00;100307.28;5030071;28;20068;-83
2022/02/05 04:28:22;;;;;;;1999.90;999.90;;;;;;;0.10;100.00;100333.53;5036156;28;20057;-83
2022/02/05 04:30:55;;;;;;;1999.90;999.90;;;;;;;0.15;100.00;100345.22;5024697;28;20064;-84
2022/02/05 04:33:28;;;;;;;1999.90;999.90;;;;;;;0.17;100.00;100345.00;5064899;28;20440;-83
2022/02/05 04:35:57;;;;;;;1999.90;999.90;;;;;;;0.24;100.00;100359.13;5030407;28;20053;-83
2022/02/05 04:38:31;;;;;;;1999.90;999.90;;;;;;;0.16;100.00;100340.69;5028645;28;20041;-83
2022/02/05 04:41:05;;;;;;;1999.90;999.90;;;;;;;0.22;100.00;100352.34;5030149;28;20053;-83
2022/02/05 04:43:51;;;;;;;1999.90;999.90;;;;;;;0.17;100.00;100356.50;5033070;28;20048;-83
2022/02/05 04:49:26;;;;;;;1999.90;999.90;;;;;;;0.14;100.00;100366.84;5028847;28;20046;-83
2022/02/05 04:55:13;;;;;;;1999.90;999.90;;;;;;;0.02;100.00;100374.75;5030514;28;20057;-83
2022/02/05 04:57:59;;;;;;;1999.90;999.90;;;;;;;0.08;100.00;100367.72;5031538;28;20041;-82
2022/02/05 05:00:44;;;;;;;1999.90;999.90;;;;;;;0.06;100.00;100375.16;5034902;28;20411;-82
2022/02/05 05:03:39;;;;;;;1999.90;999.90;;;;;;;0.05;100.00;100376.19;5030450;28;20284;-83
2022/02/05 05:06:30;;;;;;;1999.90;999.90;;;;;;;0.04;100.00;100379.88;5030826;28;20501;-83
2022/02/05 05:09:12;;;;;;;1999.90;999.90;;;;;;;0.05;100.00;100382.34;5030397;28;20455;-84
2022/02/05 05:11:52;;;;;;;;;;;;;;;0.11;100.00;100386.00;5031022;28;20042;-83
2022/02/05 05:20:08;;;;;;;1999.90;999.90;;;;;;;0.10;100.00;100395.88;5030465;28;20497;-83
2022/02/05 05:22:42;;;;;;;1999.90;999.90;;;;;;;0.11;100.00;100400.22;5030701;28;20033;-84
2022/02/05 05:25:15;;;;;;;1999.90;999.90;;;;;;;0.07;100.00;100403.53;5028574;28;20057;-83
2022/02/05 05:27:48;;;;;;;1999.90;999.90;;;;;;;0.11;100.00;100404.72;5032101;28;20061;-83
2022/02/05 05:30:23;;;;;;;1999.90;999.90;;;;;;;-0.22;100.00;100369.16;5044858;28;20045;-83
2022/02/05 05:32:56;;;;;;;1999.90;999.90;;;;;;;0.05;100.00;100402.94;5026601;28;20486;-83
2022/02/05 05:35:29;;;;;;;1999.90;999.90;;;;;;;0.06;100.00;100421.44;5029187;28;20267;-83
2022/02/05 05:38:03;;;;;;;1999.90;999.90;;;;;;;0.06;100.00;100426.78;5028110;28;20057;-82
2022/02/05 05:40:32;;;;;;;1999.90;999.90;;;;;;;-0.02;100.00;100427.06;5030320;28;20057;-83
2022/02/05 05:43:03;;;;;;;1999.90;999.90;;;;;;;-0.03;100.00;100425.41;5032612;28;20045;-83
2022/02/05 05:46:01;;;;;;;1999.90;999.90;;;;;;;0.05;100.00;100448.41;5029842;28;20482;-83
2022/02/05 05:48:44;;;;;;;1999.90;999.90;;;;;;;0.06;100.00;100440.16;5026941;28;20048;-83
2022/02/05 05:51:18;;;;;;;1999.90;999.90;;;;;;;-0.01;100.00;100450.91;5027532;28;20053;-83
2022/02/05 05:53:51;;;;;;;1999.90;999.90;;;;;;;0.01;100.00;100450.69;5033380;28;20406;-83
2022/02/05 05:56:24;;;;;;;1999.90;999.90;;;;;;;0.05;100.00;100441.19;5028065;28;20064;-83
2022/02/05 05:58:53;;;;;;;1999.90;999.90;;;;;;;0.03;100.00;100454.00;5028944;28;20049;-83
2022/02/05 06:01:28;;;;;;;1999.90;999.90;;;;;;;-0.04;100.00;100456.69;5028281;28;20053;-82
2022/02/05 06:03:56;;;;;;;1999.90;999.90;;;;;;;0.02;100.00;100470.25;5029450;28;20042;-83
2022/02/05 06:06:29;;;;;;;1999.90;999.90;;;;;;;0.02;100.00;100468.38;5045979;28;20053;-82
2022/02/05 06:09:02;;;;;;;1999.90;999.90;;;;;;;0.03;100.00;100464.69;5029385;28;20409;-83
2022/02/05 06:11:35;;;;;;;1999.90;999.90;;;;;;;-0.10;100.00;100464.75;5032179;28;20053;-83
2022/02/05 06:14:04;;;;;;;1999.90;999.90;;;;;;;0.01;100.00;100485.47;5028664;28;20053;-83
2022/02/05 06:16:38;;;;;;;1999.90;999.90;;;;;;;-0.03;100.00;100492.28;5026515;28;20397;-83
2022/02/05 06:19:11;;;;;;;1999.90;999.90;;;;;;;0.03;100.00;100495.97;5030819;28;20043;-83
2022/02/05 06:21:45;;;;;;;1999.90;999.90;;;;;;;-0.05;100.00;100503.19;5032958;28;20136;-82
2022/02/05 06:24:13;;;;;;;1999.90;999.90;;;;;;;0.04;100.00;100505.63;5032540;28;20413;-83
2022/02/05 06:26:41;;;;;;;1999.90;999.90;;;;;;;-0.01;100.00;100519.66;5031802;28;20045;-82
2022/02/05 06:29:10;;;;;;;1999.90;999.90;;;;;;;0.03;100.00;100512.00;5058072;28;20049;-83
2022/02/05 06:31:44;;;;;;;1999.90;999.90;;;;;;;0.04;100.00;100514.47;5023046;28;20394;-83
2022/02/05 06:34:12;;;;;;;1999.90;999.90;;;;;;;-0.05;100.00;100527.28;5028083;28;20041;-84
2022/02/05 06:36:46;;;;;;;1999.90;999.90;;;;;;;-0.06;100.00;100500.75;5028175;28;20061;-83
2022/02/05 06:39:19;;;;;;;1999.90;999.90;;;;;;;0.05;100.00;100524.16;5029822;28;20046;-82
2022/02/05 06:41:48;;;;;;;1999.90;999.90;;;;;;;0.04;100.00;100535.06;5025512;28;20066;-82
2022/02/05 06:44:21;;;;;;;1999.90;999.90;;;;;;;0.13;100.00;100533.78;5043002;28;20068;-82
2022/02/05 06:46:56;;;;;;;1999.90;999.90;;;;;;;0.20;100.00;100544.47;5028018;28;20053;-82
2022/02/05 06:49:30;;;;;;;1999.90;999.90;;;;;;;0.11;100.00;100558.09;5027410;28;20049;-83
2022/02/05 06:51:58;;;;;;;1999.90;999.90;;;;;;;0.18;100.00;100560.75;5029208;28;20054;-82
2022/02/05 06:54:27;;;;;;;1999.90;999.90;;;;;;;0.29;100.00;100562.72;5030669;28;20042;-82
2022/02/05 06:56:55;;;;;;;1999.90;999.90;;;;;;;0.16;100.00;100563.59;5055366;28;20058;-83
2022/02/05 06:59:23;;;;;;;1999.90;999.90;;;;;;;0.16;100.00;100571.63;5027816;28;20445;-83
2022/02/05 07:01:58;;;;;;;1999.90;999.90;;;;;;;0.17;100.00;100573.28;5028442;28;20053;-82
2022/02/05 07:04:31;;;;;;;1999.90;999.90;;;;;;;0.26;100.00;100573.88;5021860;28;20057;-83
2022/02/05 07:07:05;;;;;;;1999.90;999.90;;;;;;;0.14;100.00;100564.88;5025576;28;20053;-82
2022/02/05 07:09:38;;;;;;;1999.90;999.90;;;;;;;0.16;100.00;100582.34;5034437;28;20045;-82
2022/02/05 07:12:10;;;;;;;1999.90;999.90;;;;;;;0.14;100.00;100583.59;5026664;28;20428;-82
2022/02/05 07:14:55;;;;;;;1999.90;999.90;;;;;;;0.21;100.00;100583.56;5025317;28;20041;-82
2022/02/05 07:17:39;;;;;;;1999.90;999.90;;;;;;;0.26;100.00;100581.91;5030467;28;20061;-82
2022/02/05 07:20:17;;;;;;;1999.90;999.90;;;;;;;0.24;100.00;100594.66;5035439;28;20069;-82
2022/02/05 07:23:06;;;;;;;1999.90;999.90;;;;;;;0.21;100.00;100602.28;5066583;28;20045;-82
2022/02/05 07:31:18;;;;;;;1999.90;999.90;;;;;;;0.11;100.00;100614.28;5017344;28;20057;-82
2022/02/05 07:33:53;;;;;;;1999.90;999.90;;;;;;;0.17;100.00;100609.94;5030699;28;20057;-81
2022/02/05 07:36:22;;;;;;;1999.90;999.90;;;;;;;0.12;100.00;100601.72;5033705;28;20057;-81
2022/02/05 07:38:50;;;;;;;1999.90;999.90;;;;;;;0.02;100.00;100586.13;5030781;28;20065;-82
2022/02/05 07:41:23;;;;;;;1999.90;999.90;;;;;;;0.25;100.00;100617.72;5035323;28;20056;-81
2022/02/05 07:43:52;;;;;;;1999.90;999.90;;;;;;;0.28;100.00;100605.78;5029949;28;20049;-82
2022/02/05 07:46:23;;;;;;;1999.90;999.90;;;;;;;0.27;100.00;100612.16;5033723;28;20057;-82
2022/02/05 07:48:57;;;;;;;1999.90;999.90;;;;;;;0.17;100.00;100599.22;5028377;28;20064;-82
2022/02/05 07:51:30;;;;;;;1999.90;999.90;;;;;;;0.33;100.00;100622.84;5030759;28;20429;-82
2022/02/05 07:54:04;;;;;;;1999.90;999.90;;;;;;;0.36;100.00;100629.63;5033771;28;20088;-83
2022/02/05 07:56:33;;;;;;;1999.90;999.90;;;;;;;0.43;100.00;100621.53;5029227;28;20045;-81
2022/02/05 07:59:06;;;;;;;1999.90;999.90;;;;;;;0.42;100.00;100630.63;5029035;28;20060;-82
2022/02/05 08:01:40;;;;;;;1999.90;999.90;;;;;;;0.45;100.00;100638.22;5030871;28;20050;-84
2022/02/05 08:04:15;;;;;;;1999.90;999.90;;;;;;;0.50;100.00;100641.09;5035397;28;20448;-85
2022/02/05 08:06:45;;;;;;;1999.90;999.90;;;;;;;0.56;100.00;100647.44;5031031;28;20053;-81
2022/02/05 08:09:21;;;;;;;1999.90;999.90;;;;;;;0.63;100.00;100649.03;5028813;28;20613;-81
2022/02/05 08:11:57;;;;;;;1999.90;999.90;;;;;;;0.56;100.00;100648.25;5042374;28;20053;-82
2022/02/05 08:14:34;;;;;;;1999.90;999.90;;;;;;;0.63;100.00;100653.56;5026439;28;20050;-83
2022/02/05 08:17:07;;;;;;;1999.90;999.90;;;;;;;0.72;100.00;100659.50;5024949;28;20057;-83
2022/02/05 08:19:42;;;;;;;1999.90;999.90;;;;;;;0.82;100.00;100654.50;5029116;28;20057;-83
2022/02/05 08:22:15;;;;;;;1999.90;999.90;;;;;;;0.80;100.00;100659.25;5025827;28;20132;-83
2022/02/05 08:24:49;;;;;;;1999.90;999.90;;;;;;;0.82;100.00;100658.00;5031832;28;20049;-84
2022/02/05 08:27:17;;;;;;;1999.90;999.90;;;;;;;0.83;100.00;100666.88;5028424;28;20048;-83
2022/02/05 08:29:55;;;;;;;1999.90;999.90;;;;;;;0.83;100.00;100664.19;5024450;28;20049;-83
2022/02/05 08:32:29;;;;;;;;;;;;;;;0.93;100.00;100666.41;5047207;28;20053;-82
2022/02/05 08:35:05;;;;;;;1999.90;999.90;;;;;;;0.99;100.00;100682.41;5033647;28;20370;-82
2022/02/05 08:37:44;;;;;;;1999.90;999.90;;;;;;;1.02;100.00;100671.28;5031623;28;20203;-82
2022/02/05 08:40:17;;;;;;;1999.90;999.90;;;;;;;1.05;100.00;100675.38;5040042;28;20045;-84
2022/02/05 08:42:50;;;;;;;1999.90;999.90;;;;;;;1.05;100.00;100670.03;5037758;28;20335;-85
2022/02/05 08:45:24;;;;;;;1999.90;999.90;;;;;;;1.18;100.00;100671.78;5042964;28;20045;-84
2022/02/05 08:47:57;;;;;;;1999.90;999.90;;;;;;;1.15;100.00;100680.25;5029440;28;20053;-83
2022/02/05 08:50:32;;;;;;;1999.90;999.90;;;;;;;1.24;100.00;100681.63;5032864;28;20056;-84
2022/02/05 08:53:05;;;;;;;1999.90;999.90;;;;;;;1.29;100.00;100676.44;5033805;28;20053;-83
2022/02/05 08:55:38;;;;;;;1999.90;999.90;;;;;;;1.39;100.00;100685.84;5038946;28;20048;-84
2022/02/05 08:58:08;;;;;;;1999.90;999.90;;;;;;;1.36;100.00;100692.47;5017007;28;20635;-85
2022/02/05 09:00:45;;;;;;;1999.90;999.90;;;;;;;1.41;100.00;100681.06;5029424;28;20046;-84
2022/02/05 09:03:29;;;;;;;1999.90;999.90;;;;;;;1.45;100.00;100674.25;5028006;28;20045;-84
2022/02/05 09:06:01;;;;;;;1999.90;999.90;;;;;;;1.44;100.00;100678.78;5035166;28;20053;-85
2022/02/05 09:08:33;;;;;;;1999.90;999.90;;;;;;;1.48;100.00;100679.19;5041321;28;20057;-83
2022/02/05 09:11:13;;;;;;;1999.90;999.90;;;;;;;1.41;100.00;100665.81;5036915;28;20044;-84
2022/02/05 09:14:00;;;;;;;1999.90;999.90;;;;;;;1.58;100.00;100684.88;5032207;28;20076;-84
2022/02/05 09:16:33;;;;;;;1999.90;999.90;;;;;;;1.64;100.00;100684.00;5024910;28;20053;-84
2022/02/05 09:19:06;;;;;;;1999.90;999.90;;;;;;;1.80;100.00;100693.31;5026293;28;20045;-85
2022/02/05 09:21:36;;;;;;;1999.90;999.90;;;;;;;1.79;100.00;100691.69;5033479;28;20053;-83
2022/02/05 09:24:07;;;;;;;1999.90;999.90;;;;;;;1.84;100.00;100691.03;5031209;28;20049;-84
2022/02/05 09:26:38;;;;;;;1999.90;999.90;;;;;;;1.83;100.00;100692.06;5022167;28;20045;-83
2022/02/05 09:29:18;;;;;;;1999.90;999.90;;;;;;;1.92;100.00;100695.28;5032847;28;20058;-83
2022/02/05 09:31:52;;;;;;;1999.90;999.90;;;;;;;1.99;100.00;100696.03;5029899;28;20060;-84
2022/02/05 09:34:25;;;;;;;1999.90;999.90;;;;;;;2.02;100.00;100698.28;5034160;28;20045;-83
2022/02/05 09:37:00;;;;;;;1999.90;999.90;;;;;;;2.03;100.00;100697.22;5027115;28;20038;-83
2022/02/05 09:39:33;;;;;;;1999.90;999.90;;;;;;;2.11;100.00;100704.16;5032577;28;20042;-84
2022/02/05 09:42:02;;;;;;;1999.90;999.90;;;;;;;2.17;100.00;100698.72;5032429;28;20060;-82
2022/02/05 09:44:31;;;;;;;1999.90;999.90;;;;;;;2.14;100.00;100706.41;5017378;28;20053;-82
2022/02/05 09:47:05;;;;;;;1999.90;999.90;;;;;;;2.18;100.00;100696.84;5028877;28;20053;-83
2022/02/05 09:49:33;;;;;;;1999.90;999.90;;;;;;;2.28;100.00;100704.38;5057020;28;20057;-84
2022/02/05 09:52:09;;;;;;;1999.90;999.90;;;;;;;2.30;100.00;100707.69;5030192;28;20063;-84
2022/02/05 09:54:45;;;;;;;1999.90;999.90;;;;;;;2.31;100.00;100699.41;5065143;28;20548;-83
2022/02/05 09:57:19;;;;;;;1999.90;999.90;;;;;;;2.35;100.00;100708.66;5022424;28;20413;-84
2022/02/05 09:59:56;;;;;;;1999.90;999.90;;;;;;;2.36;100.00;100712.97;5031584;28;20048;-84
2022/02/05 10:02:36;;;;;;;1999.90;999.90;;;;;;;2.25;100.00;100711.06;5035976;28;20046;-83
2022/02/05 10:05:09;;;;;;;1999.90;999.90;;;;;;;2.33;100.00;100720.66;5031406;28;20045;-83
2022/02/05 10:07:56;;;;;;;1999.90;999.90;;;;;;;2.38;100.00;100723.50;5041682;28;20046;-83
2022/02/05 10:10:40;;;;;;;1999.90;999.90;;;;;;;2.51;100.00;100720.66;5027688;28;20072;-84
2022/02/05 10:13:10;;;;;;;1999.90;999.90;;;;;;;2.67;100.00;100739.91;5033215;28;20481;-83
2022/02/05 10:15:43;;;;;;;1999.90;999.90;;;;;;;2.61;100.00;100732.72;5031482;28;20045;-84
2022/02/05 10:18:24;;;;;;;1999.90;999.90;;;;;;;2.47;100.00;100711.41;5023982;28;20470;-82
2022/02/05 10:20:58;;;;;;;1999.90;999.90;;;;;;;2.58;100.00;100727.81;5022372;28;20057;-83
2022/02/05 10:23:29;;;;;;;1999.90;999.90;;;;;;;2.61;100.00;100727.34;5035453;28;20057;-83
2022/02/05 10:26:02;;;;;;;1999.90;999.90;;;;;;;2.65;100.00;100721.31;5031202;28;20061;-82
2022/02/05 10:28:36;;;;;;;1999.90;999.90;;;;;;;2.78;100.00;100731.06;5037981;28;20046;-82
2022/02/05 10:31:09;;;;;;;1999.90;999.90;;;;;;;2.77;100.00;100723.25;5028297;28;20045;-83
2022/02/05 10:33:43;;;;;;;1999.90;999.90;;;;;;;2.81;100.00;100730.63;5031481;28;20049;-84
2022/02/05 10:36:26;;;;;;;1999.90;999.90;;;;;;;2.92;100.00;100739.78;5025852;28;20413;-82
2022/02/05 10:39:12;;;;;;;1999.90;999.90;;;;;;;2.90;100.00;100733.81;5035846;28;20053;-83
2022/02/05 10:44:36;;;;;;;1999.90;999.90;;;;;;;3.00;100.00;100744.03;5040206;28;20478;-82
2022/02/05 10:47:09;;;;;;;1999.90;999.90;;;;;;;2.99;100.00;100737.81;5034167;28;20520;-83
2022/02/05 10:49:48;;;;;;;1999.90;999.90;;;;;;;3.05;100.00;100741.47;5027597;28;20057;-81
2022/02/05 10:52:30;;;;;;;1999.90;999.90;;;;;;;3.10;100.00;100733.53;5028826;28;20414;-81
2022/02/05 10:55:14;;;;;;;1999.90;999.90;;;;;;;3.22;100.00;100742.47;5031262;28;20041;-81
2022/02/05 10:58:09;;;;;;;1999.90;999.90;;;;;;;3.27;100.00;100739.06;5025398;28;20379;-82
2022/02/05 11:06:15;;;;;;;1999.90;999.90;;;;;;;3.54;100.00;100736.00;5010282;28;20053;-81
2022/02/05 11:08:49;;;;;;;1999.90;999.90;;;;;;;3.56;100.00;100733.88;5034420;28;20045;-81
2022/02/05 11:17:04;;;;;;;1999.90;999.90;;;;;;;3.66;100.00;100727.91;4988776;28;20056;-81
2022/02/05 11:19:38;;;;;;;1999.90;999.90;;;;;;;3.77;100.00;100727.13;5035202;28;20426;-82
2022/02/05 11:22:11;;;;;;;1999.90;999.90;;;;;;;3.88;100.00;100722.78;5038701;28;20426;-82
2022/02/05 11:24:45;;;;;;;1999.90;999.90;;;;;;;3.84;100.00;100724.31;5036544;28;20060;-82
2022/02/05 11:27:15;;;;;;;1999.90;999.90;;;;;;;3.81;100.00;100722.91;5031115;28;20049;-82
2022/02/05 11:29:48;;;;;;;1999.90;999.90;;;;;;;3.74;100.00;100725.72;5038128;28;20057;-82
2022/02/05 11:32:27;;;;;;;1999.90;999.90;;;;;;;3.67;100.00;100722.31;5035031;28;20049;-82
2022/02/05 11:35:09;;;;;;;1999.90;999.90;;;;;;;3.69;100.00;100728.28;5029264;28;20057;-82
2022/02/05 11:37:54;;;;;;;1999.90;999.90;;;;;;;3.78;100.00;100736.03;5016726;28;20050;-81
2022/02/05 11:40:49;;;;;;;1999.90;999.90;;;;;;;3.79;100.00;100722.31;5028984;28;20726;-82
2022/02/05 11:43:25;;;;;;;1999.90;999.90;;;;;;;3.83;100.00;100720.81;5030636;28;20048;-82
2022/02/05 11:46:09;;;;;;;1999.90;999.90;;;;;;;3.82;100.00;100729.91;5032682;28;20426;-83
2022/02/05 11:48:54;;;;;;;1999.90;999.90;;;;;;;3.91;100.00;100730.41;5022282;28;21643;-82
2022/02/05 11:51:29;;;;;;;1999.90;999.90;;;;;;;3.98;100.00;100739.19;5045526;28;20059;-82
2022/02/05 11:54:08;;;;;;;1999.90;999.90;;;;;;;4.02;100.00;100732.28;5031442;28;20049;-83
2022/02/05 11:56:56;;;;;;;1999.90;999.90;;;;;;;4.07;100.00;100736.94;5032161;28;20048;-81
2022/02/05 11:59:51;;;;;;;1999.90;999.90;;;;;;;4.13;100.00;100725.25;5029171;28;20060;-82
2022/02/05 12:02:38;;;;;;;1999.90;999.90;;;;;;;4.24;100.00;100732.50;5029235;28;20057;-82
2022/02/05 12:05:18;;;;;;;1999.90;999.90;;;;;;;4.16;100.00;100732.03;5060222;28;20414;-81
2022/02/05 12:08:21;;;;;;;1999.90;999.90;;;;;;;4.16;100.00;100732.84;5060393;28;20068;-81
2022/02/05 12:10:57;;;;;;;1999.90;999.90;;;;;;;4.13;100.00;100725.25;5027396;28;20041;-81
2022/02/05 12:13:28;;;;;;;1999.90;999.90;;;;;;;4.20;100.00;100734.03;5028134;28;20052;-82
2022/02/05 12:16:21;;;;;;;1999.90;999.90;;;;;;;4.20;100.00;100731.31;5027632;28;20076;-82
2022/02/05 12:19:09;;;;;;;1999.90;999.90;;;;;;;4.20;100.00;100725.13;5025357;28;20502;-80
2022/02/05 12:21:55;;;;;;;1999.90;999.90;;;;;;;4.21;100.00;100730.28;5050179;28;20507;-81
2022/02/05 12:24:49;;;;;;;1999.90;999.90;;;;;;;4.26;100.00;100733.06;5038386;28;20060;-80
2022/02/05 12:27:33;;;;;;;1999.90;999.90;;;;;;;4.31;100.00;100723.44;5024626;28;20045;-81
2022/02/05 12:30:45;;;;;;;1999.90;999.90;;;;;;;4.34;100.00;100737.28;5035857;28;20120;-83
2022/02/05 12:33:17;;;;;;;1999.90;999.90;;;;;;;4.34;100.00;100728.38;5021056;28;20481;-82
2022/02/05 12:35:52;;;;;;;1999.90;999.90;;;;;;;4.37;100.00;100734.09;5030651;28;20064;-81
2022/02/05 12:38:25;;;;;;;1999.90;999.90;;;;;;;4.41;100.00;100729.06;5033138;28;20056;-81
2022/02/05 12:40:54;;;;;;;1999.90;999.90;;;;;;;4.45;100.00;100716.75;5063781;28;20297;-83
2022/02/05 12:43:31;;;;;;;1999.90;999.90;;;;;;;4.41;100.00;100724.50;5029763;28;20045;-81
2022/02/05 12:46:08;;;;;;;1999.90;999.90;;;;;;;4.37;100.00;100720.63;5030783;28;20053;-82
2022/02/05 12:48:48;;;;;;;1999.90;999.90;;;;;;;4.29;100.00;100728.28;5026729;28;20042;-80
2022/02/05 12:51:26;;;;;;;1874.93;999.90;;;;;;;4.22;100.00;100741.88;5061265;28;20052;-81